createdAt,value
2023-03-29T00:00:32.882Z,8.85
2023-03-29T00:03:03.425Z,8.85
2023-03-29T00:05:33.923Z,8.71
2023-03-29T00:08:04.254Z,8.95
2023-03-29T00:10:33.628Z,9.08
2023-03-29T00:13:01.543Z,9.16
2023-03-29T00:15:29.581Z,9.33
2023-03-29T00:17:57.327Z,8.94
2023-03-29T00:20:26.433Z,9.19
2023-03-29T00:22:54.091Z,9.07
2023-03-29T00:25:21.782Z,8.79
2023-03-29T00:27:49.636Z,8.88
2023-03-29T00:30:17.512Z,8.60
2023-03-29T00:32:45.962Z,8.76
2023-03-29T00:35:13.649Z,9.22
2023-03-29T00:37:42.659Z,9.28
2023-03-29T00:40:12.739Z,8.97
2023-03-29T00:42:40.538Z,9.04
2023-03-29T00:45:20.439Z,8.79
2023-03-29T00:47:51.420Z,9.03
2023-03-29T00:50:25.729Z,9.20
2023-03-29T00:53:00.866Z,9.06
2023-03-29T00:55:32.868Z,8.76
2023-03-29T00:58:02.675Z,8.32
2023-03-29T01:00:34.386Z,8.45
2023-03-29T01:03:04.722Z,8.59
2023-03-29T01:05:37.635Z,8.58
2023-03-29T01:08:11.124Z,8.45
2023-03-29T01:10:44.964Z,8.29
2023-03-29T01:13:18.714Z,8.37
2023-03-29T01:15:47.888Z,8.06
2023-03-29T01:18:15.801Z,7.83
2023-03-29T01:21:04.909Z,8.04
2023-03-29T01:23:52.067Z,7.99
2023-03-29T01:26:27.091Z,8.14
2023-03-29T01:29:02.042Z,8.12
2023-03-29T01:31:33.423Z,7.92
2023-03-29T01:34:05.874Z,8.13
2023-03-29T01:36:38.854Z,8.19
2023-03-29T01:39:07.957Z,8.31
2023-03-29T01:41:42.669Z,8.24
2023-03-29T01:44:16.509Z,8.04
2023-03-29T01:46:47.658Z,7.79
2023-03-29T01:49:22.849Z,8.01
2023-03-29T01:51:54.564Z,7.88
2023-03-29T01:54:27.181Z,7.55
2023-03-29T01:56:57.026Z,7.61
2023-03-29T01:59:28.858Z,7.71
2023-03-29T02:02:00.352Z,7.74
2023-03-29T02:04:34.523Z,7.76
2023-03-29T02:07:05.136Z,7.35
2023-03-29T02:09:34.998Z,7.65
2023-03-29T02:12:04.517Z,7.76
2023-03-29T02:14:35.145Z,7.57
2023-03-29T02:17:16.562Z,7.10
2023-03-29T02:19:46.073Z,7.61
2023-03-29T02:22:16.523Z,7.58
2023-03-29T02:24:47.066Z,7.51
2023-03-29T02:27:14.998Z,7.46
2023-03-29T02:29:46.795Z,7.57
2023-03-29T02:32:20.610Z,7.34
2023-03-29T02:34:56.352Z,7.22
2023-03-29T02:37:30.111Z,7.41
2023-03-29T02:40:00.130Z,7.31
2023-03-29T02:42:29.712Z,7.22
2023-03-29T02:45:01.261Z,7.08
2023-03-29T02:47:33.185Z,7.16
2023-03-29T02:50:01.349Z,7.07
2023-03-29T02:52:35.240Z,6.93
2023-03-29T02:55:06.286Z,6.99
2023-03-29T02:57:35.603Z,6.81
2023-03-29T03:00:06.911Z,6.63
2023-03-29T03:02:35.506Z,6.82
2023-03-29T03:05:03.699Z,6.73
2023-03-29T03:07:31.415Z,6.69
2023-03-29T03:09:59.082Z,6.72
2023-03-29T03:12:27.165Z,6.73
2023-03-29T03:14:54.857Z,6.52
2023-03-29T03:17:24.612Z,6.71
2023-03-29T03:19:53.142Z,6.62
2023-03-29T03:22:20.868Z,6.57
2023-03-29T03:24:49.278Z,6.77
2023-03-29T03:27:17.006Z,6.58
2023-03-29T03:29:44.712Z,6.86
2023-03-29T03:32:12.439Z,6.65
2023-03-29T03:34:41.461Z,6.73
2023-03-29T03:37:11.908Z,7.04
2023-03-29T03:39:39.630Z,6.58
2023-03-29T03:42:08.339Z,7.09
2023-03-29T03:44:36.505Z,7.05
2023-03-29T03:47:05.681Z,6.95
2023-03-29T03:49:33.420Z,7.03
2023-03-29T03:52:02.590Z,6.55
2023-03-29T03:54:30.323Z,6.66
2023-03-29T03:56:58.110Z,6.92
2023-03-29T03:59:26.581Z,6.89
2023-03-29T04:01:54.339Z,6.65
2023-03-29T04:04:23.293Z,6.78
2023-03-29T04:06:51.238Z,6.76
2023-03-29T04:09:20.682Z,6.99
2023-03-29T04:11:49.633Z,6.99
2023-03-29T04:14:17.300Z,7.03
2023-03-29T04:16:44.932Z,7.02
2023-03-29T04:19:12.928Z,7.18
2023-03-29T04:21:40.749Z,7.11
2023-03-29T04:24:08.929Z,7.10
2023-03-29T04:26:37.975Z,6.93
2023-03-29T04:29:05.753Z,6.91
2023-03-29T04:31:33.655Z,7.03
2023-03-29T04:34:01.591Z,7.18
2023-03-29T04:36:29.258Z,7.36
2023-03-29T04:38:57.001Z,7.32
2023-03-29T04:41:24.936Z,7.52
2023-03-29T04:43:55.994Z,7.24
2023-03-29T04:46:25.489Z,7.49
2023-03-29T04:48:53.870Z,7.77
2023-03-29T04:51:22.431Z,7.18
2023-03-29T04:53:50.967Z,7.43
2023-03-29T04:56:19.049Z,7.46
2023-03-29T04:58:46.759Z,7.26
2023-03-29T05:01:15.829Z,7.03
2023-03-29T05:03:43.779Z,7.12
2023-03-29T05:06:12.147Z,6.94
2023-03-29T05:08:41.249Z,7.35
2023-03-29T05:11:10.270Z,7.49
2023-03-29T05:13:38.960Z,7.40
2023-03-29T05:16:07.894Z,7.17
2023-03-29T05:18:37.089Z,7.42
2023-03-29T05:21:06.355Z,7.10
2023-03-29T05:23:34.507Z,7.18
2023-03-29T05:26:02.641Z,7.55
2023-03-29T05:28:30.468Z,7.29
2023-03-29T05:31:02.545Z,7.15
2023-03-29T05:33:30.863Z,7.19
2023-03-29T05:36:04.504Z,7.43
2023-03-29T05:38:32.805Z,7.08
2023-03-29T05:41:01.790Z,7.06
2023-03-29T05:43:30.066Z,7.31
2023-03-29T05:45:58.300Z,7.54
2023-03-29T05:48:27.038Z,7.24
2023-03-29T05:50:56.299Z,7.52
2023-03-29T05:53:27.097Z,7.35
2023-03-29T05:55:55.356Z,7.59
2023-03-29T05:58:26.634Z,7.11
2023-03-29T06:00:54.427Z,7.36
2023-03-29T06:03:25.458Z,7.85
2023-03-29T06:05:58.616Z,7.34
2023-03-29T06:08:28.589Z,7.99
2023-03-29T06:11:02.505Z,7.86
2023-03-29T06:13:33.506Z,7.96
2023-03-29T06:16:02.117Z,8.09
2023-03-29T06:18:30.022Z,7.67
2023-03-29T06:20:57.737Z,7.93
2023-03-29T06:23:27.041Z,7.70
2023-03-29T06:25:55.364Z,7.75
2023-03-29T06:28:23.969Z,7.84
2023-03-29T06:30:53.459Z,7.48
2023-03-29T06:33:21.534Z,7.52
2023-03-29T06:35:50.507Z,7.74
2023-03-29T06:38:18.261Z,8.04
2023-03-29T06:40:48.203Z,8.20
2023-03-29T06:43:15.850Z,8.14
2023-03-29T06:45:43.692Z,7.70
2023-03-29T06:48:12.278Z,8.11
2023-03-29T06:50:40.017Z,7.86
2023-03-29T06:53:07.716Z,8.13
2023-03-29T06:55:36.038Z,8.09
2023-03-29T06:58:05.227Z,8.25
2023-03-29T07:00:35.764Z,8.09
2023-03-29T07:03:09.792Z,8.31
2023-03-29T07:05:40.814Z,8.46
2023-03-29T07:08:16.387Z,8.33
2023-03-29T07:10:47.395Z,8.43
2023-03-29T07:13:17.272Z,8.42
2023-03-29T07:15:45.830Z,8.51
2023-03-29T07:18:13.600Z,8.89
2023-03-29T07:20:42.483Z,9.36
2023-03-29T07:23:11.398Z,9.53
2023-03-29T07:25:39.602Z,8.91
2023-03-29T07:28:07.527Z,8.93
2023-03-29T07:30:37.197Z,9.20
2023-03-29T07:33:05.318Z,8.65
2023-03-29T07:35:33.224Z,9.14
2023-03-29T07:38:01.070Z,9.10
2023-03-29T07:40:29.202Z,8.78
2023-03-29T07:42:57.598Z,9.45
2023-03-29T07:45:29.111Z,9.79
2023-03-29T07:48:00.020Z,9.58
2023-03-29T07:50:28.730Z,9.25
2023-03-29T07:52:56.855Z,8.83
2023-03-29T07:55:24.759Z,8.90
2023-03-29T07:57:53.537Z,9.85
2023-03-29T08:00:22.383Z,10.12
2023-03-29T08:02:52.316Z,10.24
2023-03-29T08:05:37.739Z,9.80
2023-03-29T08:08:09.697Z,9.54
2023-03-29T08:10:39.367Z,9.81
2023-03-29T08:13:09.163Z,10.21
2023-03-29T08:15:39.016Z,9.91
2023-03-29T08:18:07.282Z,10.17
2023-03-29T08:20:36.430Z,10.73
2023-03-29T08:23:04.196Z,10.14
2023-03-29T08:25:31.887Z,10.38
2023-03-29T08:27:59.949Z,10.46
2023-03-29T08:30:28.187Z,10.57
2023-03-29T08:32:56.446Z,10.64
2023-03-29T08:35:24.185Z,10.86
2023-03-29T08:37:53.189Z,10.54
2023-03-29T08:40:26.699Z,10.67
2023-03-29T08:43:08.214Z,10.72
2023-03-29T08:45:45.116Z,10.69
2023-03-29T08:48:23.767Z,10.22
2023-03-29T08:50:54.959Z,10.73
2023-03-29T08:53:30.634Z,10.58
2023-03-29T08:56:02.640Z,10.08
2023-03-29T08:58:35.246Z,10.18
2023-03-29T09:01:06.234Z,10.78
2023-03-29T09:03:39.136Z,11.27
2023-03-29T09:06:09.625Z,11.05
2023-03-29T09:08:42.083Z,11.19
2023-03-29T09:11:28.968Z,11.07
2023-03-29T09:14:05.909Z,11.74
2023-03-29T09:16:41.837Z,11.00
2023-03-29T09:19:20.939Z,11.69
2023-03-29T09:21:57.936Z,11.53
2023-03-29T09:24:39.863Z,11.30
2023-03-29T09:27:11.364Z,10.93
2023-03-29T09:29:53.510Z,11.19
2023-03-29T09:32:23.810Z,11.23
2023-03-29T09:35:01.909Z,11.22
2023-03-29T09:37:34.196Z,11.64
2023-03-29T09:40:12.084Z,11.93
2023-03-29T09:42:40.849Z,11.76
2023-03-29T09:45:09.848Z,12.51
2023-03-29T09:47:41.235Z,12.22
2023-03-29T09:50:27.799Z,12.07
2023-03-29T09:52:59.182Z,11.99
2023-03-29T09:55:31.138Z,12.73
2023-03-29T09:58:01.777Z,13.05
2023-03-29T10:00:30.082Z,12.46
2023-03-29T10:03:00.244Z,12.37
2023-03-29T10:05:37.756Z,12.31
2023-03-29T10:08:19.869Z,11.73
2023-03-29T10:10:49.606Z,12.62
2023-03-29T10:13:22.810Z,11.96
2023-03-29T10:16:03.529Z,11.95
2023-03-29T10:18:32.224Z,11.75
2023-03-29T10:21:01.223Z,11.93
2023-03-29T10:23:33.278Z,12.00
2023-03-29T10:26:04.634Z,12.08
2023-03-29T10:28:34.089Z,12.55
2023-03-29T10:31:04.002Z,12.20
2023-03-29T10:33:34.925Z,11.97
2023-03-29T10:36:05.934Z,12.12
2023-03-29T10:38:37.241Z,12.11
2023-03-29T10:41:09.958Z,12.26
2023-03-29T10:43:40.421Z,12.05
2023-03-29T10:46:11.052Z,12.44
2023-03-29T10:48:39.055Z,12.01
2023-03-29T10:51:07.620Z,12.18
2023-03-29T10:53:37.630Z,12.45
2023-03-29T10:56:25.564Z,11.58
2023-03-29T10:59:18.282Z,11.91
2023-03-29T11:01:57.021Z,11.49
2023-03-29T11:04:37.636Z,11.10
2023-03-29T11:07:23.246Z,11.82
2023-03-29T11:09:58.678Z,11.89
2023-03-29T11:12:35.614Z,11.75
2023-03-29T11:15:20.009Z,12.41
2023-03-29T11:18:00.198Z,11.98
2023-03-29T11:20:39.079Z,12.40
2023-03-29T11:23:24.026Z,12.81
2023-03-29T11:26:02.375Z,12.86
2023-03-29T11:28:37.684Z,12.80
2023-03-29T11:31:17.360Z,12.98
2023-03-29T11:33:57.022Z,12.52
2023-03-29T11:36:33.699Z,12.81
2023-03-29T11:39:09.487Z,12.88
2023-03-29T11:41:41.314Z,13.33
2023-03-29T11:44:18.348Z,12.92
2023-03-29T11:46:49.528Z,13.50
2023-03-29T11:49:22.059Z,13.67
2023-03-29T11:51:55.591Z,12.91
2023-03-29T11:54:28.817Z,13.42
2023-03-29T11:57:01.698Z,13.63
2023-03-29T11:59:35.763Z,13.04
2023-03-29T12:02:12.247Z,13.14
2023-03-29T12:04:44.554Z,13.45
2023-03-29T12:07:18.366Z,13.83
2023-03-29T12:09:50.571Z,14.10
2023-03-29T12:12:25.052Z,13.99
2023-03-29T12:15:03.752Z,14.32
2023-03-29T12:17:35.363Z,13.75
2023-03-29T12:20:12.377Z,13.94
2023-03-29T12:22:41.085Z,14.31
2023-03-29T12:25:18.822Z,13.28
2023-03-29T12:27:56.154Z,13.71
2023-03-29T12:30:50.700Z,14.11
2023-03-29T12:33:33.479Z,14.92
2023-03-29T12:36:18.836Z,13.95
2023-03-29T12:38:48.195Z,13.43
2023-03-29T12:41:20.002Z,14.07
2023-03-29T12:43:48.184Z,13.88
2023-03-29T12:46:20.173Z,14.31
2023-03-29T12:48:50.689Z,14.47
2023-03-29T12:51:20.506Z,14.91
2023-03-29T12:53:51.513Z,14.66
2023-03-29T12:56:21.969Z,14.03
2023-03-29T12:59:06.640Z,13.63
2023-03-29T13:01:37.903Z,13.33
2023-03-29T13:04:20.410Z,13.68
2023-03-29T13:07:03.920Z,13.44
2023-03-29T13:09:35.618Z,14.23
2023-03-29T13:12:10.176Z,14.12
2023-03-29T13:14:43.671Z,14.10
2023-03-29T13:17:28.661Z,13.59
2023-03-29T13:20:19.693Z,14.01
2023-03-29T13:22:58.000Z,13.72
2023-03-29T13:25:42.067Z,13.39
2023-03-29T13:28:19.772Z,13.91
2023-03-29T13:30:59.335Z,14.20
2023-03-29T13:33:55.352Z,14.55
2023-03-29T13:36:36.359Z,13.99
2023-03-29T13:39:07.854Z,14.44
2023-03-29T13:41:49.154Z,14.67
2023-03-29T13:44:27.853Z,14.50
2023-03-29T13:47:17.418Z,14.37
2023-03-29T13:49:53.492Z,14.68
2023-03-29T13:52:27.249Z,15.10
2023-03-29T13:55:01.127Z,14.60
2023-03-29T13:57:36.094Z,14.98
2023-03-29T14:00:11.744Z,14.45
2023-03-29T14:02:49.187Z,14.66
2023-03-29T14:05:22.650Z,14.62
2023-03-29T14:07:52.682Z,14.76
2023-03-29T14:10:25.593Z,15.09
2023-03-29T14:12:54.091Z,14.94
2023-03-29T14:15:28.522Z,14.83
2023-03-29T14:18:00.324Z,14.91
2023-03-29T14:20:32.366Z,14.90
2023-03-29T14:23:00.127Z,14.67
2023-03-29T14:25:30.374Z,14.62
2023-03-29T14:27:58.144Z,14.62
2023-03-29T14:30:29.074Z,14.17
2023-03-29T14:32:57.360Z,14.54
2023-03-29T14:35:33.207Z,14.55
2023-03-29T14:38:03.592Z,14.27
2023-03-29T14:40:32.591Z,14.33
2023-03-29T14:43:05.322Z,14.40
2023-03-29T14:45:33.294Z,14.12
2023-03-29T14:48:01.671Z,14.67
2023-03-29T14:50:32.361Z,14.66
2023-03-29T14:53:01.828Z,13.85
2023-03-29T14:55:30.939Z,14.21
2023-03-29T14:58:00.132Z,14.58
2023-03-29T15:00:30.225Z,14.63
2023-03-29T15:03:00.536Z,14.60
2023-03-29T15:05:38.684Z,14.49
2023-03-29T15:08:09.854Z,14.37
2023-03-29T15:10:39.079Z,14.43
2023-03-29T15:13:09.365Z,14.14
2023-03-29T15:15:39.104Z,14.10
2023-03-29T15:18:09.051Z,14.77
2023-03-29T15:20:40.692Z,14.86
2023-03-29T15:23:23.357Z,14.80
2023-03-29T15:25:55.314Z,14.99
2023-03-29T15:28:28.629Z,15.17
2023-03-29T15:33:35.702Z,15.07
2023-03-29T15:36:07.171Z,15.52
2023-03-29T15:38:43.304Z,15.17
2023-03-29T15:41:13.368Z,14.88
2023-03-29T15:43:41.283Z,14.55
2023-03-29T15:46:09.395Z,14.26
2023-03-29T15:48:37.388Z,14.61
2023-03-29T15:51:07.499Z,14.56
2023-03-29T15:53:36.240Z,14.81
2023-03-29T15:56:08.032Z,15.06
2023-03-29T15:58:36.885Z,15.40
2023-03-29T16:01:13.084Z,15.16
2023-03-29T16:03:41.622Z,15.10
2023-03-29T16:06:13.177Z,15.07
2023-03-29T16:08:41.834Z,15.31
2023-03-29T16:11:09.800Z,15.14
2023-03-29T16:13:37.484Z,15.02
2023-03-29T16:16:05.933Z,14.93
2023-03-29T16:18:33.816Z,14.97
2023-03-29T16:21:01.886Z,15.03
2023-03-29T16:23:30.958Z,14.87
2023-03-29T16:25:59.242Z,14.96
2023-03-29T16:28:27.105Z,14.95
2023-03-29T16:30:54.933Z,14.43
2023-03-29T16:33:23.018Z,14.10
2023-03-29T16:35:51.093Z,13.82
2023-03-29T16:38:18.822Z,13.84
2023-03-29T16:40:47.951Z,14.75
2023-03-29T16:43:17.058Z,14.69
2023-03-29T16:45:44.883Z,14.69
2023-03-29T16:48:14.378Z,14.42
2023-03-29T16:50:42.171Z,13.99
2023-03-29T16:53:10.343Z,14.39
2023-03-29T16:55:39.342Z,14.22
2023-03-29T16:58:08.529Z,14.21
2023-03-29T17:00:36.674Z,14.28
2023-03-29T17:03:04.566Z,14.47
2023-03-29T17:05:33.751Z,14.39
2023-03-29T17:08:02.209Z,14.62
2023-03-29T17:10:29.990Z,14.47
2023-03-29T17:12:57.848Z,14.30
2023-03-29T17:15:26.973Z,14.01
2023-03-29T17:17:54.801Z,14.31
2023-03-29T17:20:22.534Z,14.50
2023-03-29T17:22:52.170Z,14.55
2023-03-29T17:25:19.998Z,14.60
2023-03-29T17:27:47.819Z,14.38
2023-03-29T17:30:16.607Z,14.63
2023-03-29T17:32:45.875Z,14.30
2023-03-29T17:35:14.296Z,14.38
2023-03-29T17:37:42.981Z,14.47
2023-03-29T17:40:13.766Z,14.22
2023-03-29T17:42:41.743Z,14.17
2023-03-29T17:45:11.282Z,14.27
2023-03-29T17:47:39.157Z,14.48
2023-03-29T17:50:11.181Z,14.54
2023-03-29T17:52:40.372Z,13.93
2023-03-29T17:55:11.231Z,13.63
2023-03-29T17:57:39.343Z,13.67
2023-03-29T18:00:10.620Z,13.81
2023-03-29T18:02:38.511Z,14.17
2023-03-29T18:05:09.443Z,14.00
2023-03-29T18:07:37.621Z,14.12
2023-03-29T18:10:06.336Z,14.34
2023-03-29T18:12:34.103Z,14.32
2023-03-29T18:15:02.462Z,13.57
2023-03-29T18:17:31.283Z,13.82
2023-03-29T18:19:59.192Z,13.75
2023-03-29T18:22:28.631Z,13.77
2023-03-29T18:24:56.400Z,13.51
2023-03-29T18:27:25.374Z,13.67
2023-03-29T18:29:55.160Z,13.69
2023-03-29T18:32:23.212Z,13.88
2023-03-29T18:34:50.970Z,13.77
2023-03-29T18:37:18.642Z,13.82
2023-03-29T18:39:48.041Z,13.86
2023-03-29T18:42:15.851Z,13.77
2023-03-29T18:44:43.657Z,13.54
2023-03-29T18:47:11.639Z,13.60
2023-03-29T18:49:40.670Z,13.53
2023-03-29T18:52:09.099Z,13.56
2023-03-29T18:54:37.004Z,13.65
2023-03-29T18:57:06.375Z,13.42
2023-03-29T18:59:35.869Z,13.31
2023-03-29T19:02:03.741Z,13.77
2023-03-29T19:04:31.701Z,13.54
2023-03-29T19:07:01.377Z,13.24
2023-03-29T19:09:29.388Z,13.28
2023-03-29T19:11:57.212Z,13.16
2023-03-29T19:14:26.357Z,13.32
2023-03-29T19:16:54.430Z,13.32
2023-03-29T19:19:23.869Z,13.02
2023-03-29T19:21:52.811Z,12.82
2023-03-29T19:24:20.842Z,12.97
2023-03-29T19:26:50.093Z,12.92
2023-03-29T19:29:17.862Z,12.73
2023-03-29T19:31:47.261Z,13.11
2023-03-29T19:34:15.944Z,13.18
2023-03-29T19:36:43.614Z,13.32
2023-03-29T19:39:11.383Z,13.13
2023-03-29T19:41:41.357Z,12.84
2023-03-29T19:44:10.034Z,12.88
2023-03-29T19:46:37.859Z,12.76
2023-03-29T19:49:08.400Z,12.74
2023-03-29T19:51:36.278Z,12.89
2023-03-29T19:54:05.157Z,12.95
2023-03-29T19:56:33.099Z,12.90
2023-03-29T19:59:00.851Z,12.89
2023-03-29T20:01:32.196Z,13.27
2023-03-29T20:04:00.177Z,12.82
2023-03-29T20:06:29.360Z,12.81
2023-03-29T20:08:57.699Z,13.05
2023-03-29T20:11:25.637Z,13.11
2023-03-29T20:13:53.353Z,12.89
2023-03-29T20:16:24.322Z,12.83
2023-03-29T20:18:53.988Z,13.11
2023-03-29T20:21:21.778Z,12.69
2023-03-29T20:23:51.352Z,12.59
2023-03-29T20:26:19.051Z,12.88
2023-03-29T20:28:47.233Z,12.84
2023-03-29T20:31:15.162Z,12.71
2023-03-29T20:33:44.451Z,12.86
2023-03-29T20:36:12.443Z,13.12
2023-03-29T20:38:40.525Z,13.12
2023-03-29T20:41:10.835Z,12.91
2023-03-29T20:43:38.634Z,12.41
2023-03-29T20:46:14.322Z,13.11
2023-03-29T20:48:52.976Z,13.23
2023-03-29T20:51:21.556Z,13.03
2023-03-29T20:53:50.666Z,13.29
2023-03-29T20:56:20.829Z,13.05
2023-03-29T20:58:48.491Z,12.98
2023-03-29T21:01:16.218Z,13.11
2023-03-29T21:03:44.005Z,13.24
2023-03-29T21:06:14.033Z,13.47
2023-03-29T21:08:42.580Z,13.44
2023-03-29T21:11:13.026Z,13.20
2023-03-29T21:13:42.125Z,12.98
2023-03-29T21:16:10.725Z,13.09
2023-03-29T21:18:39.087Z,13.38
2023-03-29T21:21:07.994Z,13.42
2023-03-29T21:23:36.329Z,13.03
2023-03-29T21:26:04.994Z,13.39
2023-03-29T21:28:32.735Z,13.02
2023-03-29T21:31:05.217Z,13.30
2023-03-29T21:33:33.316Z,13.39
2023-03-29T21:36:02.035Z,13.25
2023-03-29T21:38:30.002Z,13.46
2023-03-29T21:40:58.403Z,12.98
2023-03-29T21:43:26.384Z,12.70
2023-03-29T21:45:54.131Z,12.84
2023-03-29T21:48:23.246Z,13.08
2023-03-29T21:50:51.156Z,12.77
2023-03-29T21:53:19.053Z,12.86
2023-03-29T21:55:49.133Z,13.16
2023-03-29T21:58:17.047Z,12.99
2023-03-29T22:00:44.896Z,13.00
2023-03-29T22:03:13.211Z,13.05
2023-03-29T22:09:28.965Z,12.52
2023-03-29T22:11:56.904Z,12.73
2023-03-29T22:14:24.646Z,12.85
2023-03-29T22:16:52.530Z,12.77
2023-03-29T22:19:20.415Z,13.04
2023-03-29T22:21:48.656Z,13.09
2023-03-29T22:24:17.362Z,13.08
2023-03-29T22:26:46.433Z,12.86
2023-03-29T22:29:14.118Z,12.82
2023-03-29T22:31:41.977Z,12.92
2023-03-29T22:34:09.949Z,13.05
2023-03-29T22:36:37.887Z,12.69
2023-03-29T22:39:06.516Z,12.65
2023-03-29T22:41:34.210Z,12.74
2023-03-29T22:44:03.540Z,12.72
2023-03-29T22:46:31.635Z,12.85
2023-03-29T22:48:59.443Z,12.77
2023-03-29T22:51:27.266Z,12.82
2023-03-29T22:53:55.028Z,12.69
2023-03-29T22:56:23.217Z,12.86
2023-03-29T22:58:51.005Z,12.66
2023-03-29T23:01:20.152Z,12.82
2023-03-29T23:03:47.860Z,12.40
2023-03-29T23:06:15.532Z,12.66
2023-03-29T23:08:43.220Z,12.63
2023-03-29T23:11:11.507Z,12.52
2023-03-29T23:13:39.989Z,12.52
2023-03-29T23:16:08.446Z,12.55
2023-03-29T23:18:37.960Z,12.62
2023-03-29T23:21:07.556Z,12.81
2023-03-29T23:23:36.151Z,12.83
2023-03-29T23:26:03.982Z,12.60
2023-03-29T23:28:34.285Z,12.95
2023-03-29T23:31:04.572Z,12.72
2023-03-29T23:33:35.061Z,12.84
2023-03-29T23:36:07.772Z,12.68
2023-03-29T23:38:37.523Z,12.86
2023-03-29T23:41:08.404Z,12.77
2023-03-29T23:43:37.573Z,12.99
2023-03-29T23:46:07.636Z,12.73
2023-03-29T23:48:35.782Z,12.76
2023-03-29T23:51:07.745Z,12.75
2023-03-29T23:53:35.520Z,12.66
2023-03-29T23:56:05.752Z,12.33
2023-03-29T23:58:34.946Z,12.77
